Time;durP1;ratioP1;P1;durP2;ratioP2;P2;SDS_P1;SDS_P2;PMS_P1;PMS_P2;Temp;Humidity;BMP_temperature;BMP_pressure;BME280_temperature;BME280_humidity;BME280_pressure;Samples;Min_cycle;Max_cycle;Signal;HPM_P1;HPM_P2
2023/06/18 00:00:58;;;;;;;4.30;3.90;;;;;;;;;;4929061;29;20051;-76
2023/06/18 00:03:26;;;;;;;4.43;4.13;;;;;;;;;;4929179;28;20046;-76
2023/06/18 00:05:54;;;;;;;4.57;4.28;;;;;;;;;;4928256;29;20051;-76
2023/06/18 00:08:22;;;;;;;4.30;3.90;;;;;;;;;;4929081;29;20048;-76
2023/06/18 00:10:49;;;;;;;4.60;4.20;;;;;;;;;;4928755;29;20544;-75
2023/06/18 00:13:17;;;;;;;5.35;4.85;;;;;;;;;;4928209;29;20466;-78
2023/06/18 00:15:45;;;;;;;4.90;4.50;;;;;;;;;;4925992;29;20478;-79
2023/06/18 00:18:12;;;;;;;4.30;4.00;;;;;;;;;;4928974;29;20039;-78
2023/06/18 00:20:40;;;;;;;4.53;4.18;;;;;;;;;;4928525;29;20083;-75
2023/06/18 00:23:07;;;;;;;3.92;3.70;;;;;;;;;;4929272;29;20051;-77
2023/06/18 00:25:36;;;;;;;4.20;3.90;;;;;;;;;;4930574;29;20131;-76
2023/06/18 00:28:04;;;;;;;4.90;4.53;;;;;;;;;;4929554;29;20502;-78
2023/06/18 00:30:32;;;;;;;4.40;4.00;;;;;;;;;;4943475;28;20557;-75
2023/06/18 00:33:01;;;;;;;4.40;4.00;;;;;;;;;;4979973;23;20114;-76
2023/06/18 00:35:28;;;;;;;6.13;4.18;;;;;;;;;;4955508;28;20303;-75
2023/06/18 00:37:59;;;;;;;4.15;3.85;;;;;;;;;;4952428;28;20196;-76
2023/06/18 00:40:27;;;;;;;4.30;3.78;;;;;;;;;;4961249;28;20497;-76
2023/06/18 00:42:55;;;;;;;4.60;4.20;;;;;;;;;;4953881;28;20055;-77
2023/06/18 00:45:22;;;;;;;4.78;4.30;;;;;;;;;;4951663;28;20055;-76
2023/06/18 00:47:50;;;;;;;4.65;4.20;;;;;;;;;;4947538;28;20142;-75
2023/06/18 00:50:18;;;;;;;4.40;4.00;;;;;;;;;;4955334;28;20058;-75
2023/06/18 00:52:47;;;;;;;4.70;4.35;;;;;;;;;;4951401;28;20598;-75
2023/06/18 00:55:20;;;;;;;4.25;3.95;;;;;;;;;;4955278;28;20078;-75
2023/06/18 00:57:49;;;;;;;4.25;3.95;;;;;;;;;;4947673;28;20051;-75
2023/06/18 01:00:20;;;;;;;3.80;3.50;;;;;;;;;;4951898;28;20261;-77
2023/06/18 01:02:49;;;;;;;4.10;3.80;;;;;;;;;;4948427;28;20049;-76
2023/06/18 01:05:19;;;;;;;5.35;3.78;;;;;;;;;;4947047;28;20796;-76
2023/06/18 01:07:48;;;;;;;4.32;4.03;;;;;;;;;;4946293;28;20425;-76
2023/06/18 01:10:17;;;;;;;4.18;3.88;;;;;;;;;;4961887;28;20089;-75
2023/06/18 01:12:48;;;;;;;4.53;4.13;;;;;;;;;;4975009;28;20046;-75
2023/06/18 01:15:18;;;;;;;4.13;3.83;;;;;;;;;;4955161;28;20046;-76
2023/06/18 01:17:48;;;;;;;4.00;3.70;;;;;;;;;;4955645;28;20150;-76
2023/06/18 01:20:17;;;;;;;4.15;3.85;;;;;;;;;;4934968;28;20079;-76
2023/06/18 01:22:52;;;;;;;4.43;4.10;;;;;;;;;;4957929;28;20404;-75
2023/06/18 01:25:19;;;;;;;4.43;4.03;;;;;;;;;;4955181;28;20062;-75
2023/06/18 01:27:50;;;;;;;4.30;4.00;;;;;;;;;;4957438;28;20505;-75
2023/06/18 01:30:18;;;;;;;4.88;4.07;;;;;;;;;;4961994;28;20050;-75
2023/06/18 01:32:45;;;;;;;4.50;4.15;;;;;;;;;;4958085;28;20066;-75
2023/06/18 01:35:15;;;;;;;4.55;4.20;;;;;;;;;;4952082;28;20050;-75
2023/06/18 01:38:18;;;;;;;5.18;4.68;;;;;;;;;;4958690;28;20047;-75
2023/06/18 01:40:51;;;;;;;4.22;3.92;;;;;;;;;;4917823;29;20054;-75
2023/06/18 01:43:18;;;;;;;4.63;4.30;;;;;;;;;;4955546;28;20057;-74
2023/06/18 01:45:49;;;;;;;4.35;4.05;;;;;;;;;;4945442;28;20643;-75
2023/06/18 01:48:18;;;;;;;4.28;3.97;;;;;;;;;;4978126;28;20055;-75
2023/06/18 01:50:47;;;;;;;5.13;4.50;;;;;;;;;;4947213;28;20063;-75
2023/06/18 01:53:16;;;;;;;4.45;4.10;;;;;;;;;;4944966;28;20151;-75
2023/06/18 01:55:44;;;;;;;4.47;4.18;;;;;;;;;;4947765;28;20236;-75
2023/06/18 01:58:14;;;;;;;4.38;4.07;;;;;;;;;;4954854;28;20048;-75
2023/06/18 02:00:42;;;;;;;4.32;4.03;;;;;;;;;;4982839;28;20634;-74
2023/06/18 02:03:10;;;;;;;4.25;3.95;;;;;;;;;;4945907;28;20040;-75
2023/06/18 02:05:37;;;;;;;4.63;4.22;;;;;;;;;;4982212;28;20053;-75
2023/06/18 02:08:05;;;;;;;4.68;4.28;;;;;;;;;;4955897;28;20105;-75
2023/06/18 02:10:32;;;;;;;4.13;3.83;;;;;;;;;;4988004;28;20845;-75
2023/06/18 02:13:00;;;;;;;4.00;3.70;;;;;;;;;;4951748;28;20098;-75
2023/06/18 02:15:27;;;;;;;4.32;4.00;;;;;;;;;;4953399;28;20043;-75
2023/06/18 02:17:54;;;;;;;4.53;4.22;;;;;;;;;;4957503;28;20445;-75
2023/06/18 02:20:22;;;;;;;4.00;3.70;;;;;;;;;;4953235;28;20173;-75
2023/06/18 02:22:50;;;;;;;5.80;3.97;;;;;;;;;;4950458;28;20054;-75
2023/06/18 02:25:19;;;;;;;4.15;3.72;;;;;;;;;;4984553;28;20451;-75
2023/06/18 02:27:53;;;;;;;4.80;4.40;;;;;;;;;;4948203;28;20054;-75
2023/06/18 02:30:21;;;;;;;4.38;4.00;;;;;;;;;;4963163;28;20130;-75
2023/06/18 02:32:49;;;;;;;4.47;4.07;;;;;;;;;;4937542;28;20055;-75
2023/06/18 02:35:17;;;;;;;4.35;4.05;;;;;;;;;;4949122;28;20044;-75
2023/06/18 02:37:44;;;;;;;4.72;4.32;;;;;;;;;;4950863;28;20067;-75
2023/06/18 02:40:14;;;;;;;4.38;4.07;;;;;;;;;;4983597;28;20047;-75
2023/06/18 02:42:47;;;;;;;4.57;4.18;;;;;;;;;;4959187;28;20138;-75
2023/06/18 02:45:17;;;;;;;5.43;3.95;;;;;;;;;;4945847;28;20051;-75
2023/06/18 02:47:48;;;;;;;4.43;4.03;;;;;;;;;;4945568;28;20051;-75
2023/06/18 02:50:17;;;;;;;4.97;4.57;;;;;;;;;;4949371;28;20082;-75
2023/06/18 02:52:46;;;;;;;4.43;4.03;;;;;;;;;;4942773;28;20565;-75
2023/06/18 02:55:14;;;;;;;5.43;4.38;;;;;;;;;;4954860;28;20066;-75
2023/06/18 02:57:42;;;;;;;4.50;4.20;;;;;;;;;;4946408;28;20051;-75
2023/06/18 03:00:11;;;;;;;4.15;3.85;;;;;;;;;;4956937;28;20050;-75
2023/06/18 03:02:41;;;;;;;4.95;3.95;;;;;;;;;;4979086;28;20113;-75
2023/06/18 03:05:13;;;;;;;4.38;4.07;;;;;;;;;;4942581;28;20043;-75
2023/06/18 03:07:41;;;;;;;4.50;3.95;;;;;;;;;;4982550;28;20051;-75
2023/06/18 03:10:10;;;;;;;4.43;4.13;;;;;;;;;;4960547;28;20472;-75
2023/06/18 03:12:38;;;;;;;4.00;3.80;;;;;;;;;;4959214;28;20047;-75
2023/06/18 03:15:19;;;;;;;4.40;4.10;;;;;;;;;;4952952;28;20046;-75
2023/06/18 03:17:47;;;;;;;4.38;4.07;;;;;;;;;;4951310;28;20139;-75
2023/06/18 03:20:18;;;;;;;4.25;3.85;;;;;;;;;;4959045;28;20050;-75
2023/06/18 03:22:51;;;;;;;4.57;4.20;;;;;;;;;;4987397;28;20054;-75
2023/06/18 03:25:19;;;;;;;4.47;4.18;;;;;;;;;;4960531;28;20042;-75
2023/06/18 03:27:47;;;;;;;4.35;4.05;;;;;;;;;;4965972;28;20364;-75
2023/06/18 03:30:15;;;;;;;4.30;4.00;;;;;;;;;;4953519;28;20237;-75
2023/06/18 03:32:43;;;;;;;4.88;4.45;;;;;;;;;;4956553;28;20141;-75
2023/06/18 03:35:10;;;;;;;4.40;4.10;;;;;;;;;;4955007;28;20585;-75
2023/06/18 03:37:38;;;;;;;5.32;4.82;;;;;;;;;;4963726;28;20039;-75
2023/06/18 03:40:07;;;;;;;4.80;4.40;;;;;;;;;;4960433;28;20046;-75
2023/06/18 03:42:34;;;;;;;4.47;4.18;;;;;;;;;;4948478;28;20462;-75
2023/06/18 03:45:02;;;;;;;4.47;4.13;;;;;;;;;;4952867;28;20054;-75
2023/06/18 03:47:29;;;;;;;4.20;3.90;;;;;;;;;;4961088;28;20050;-75
2023/06/18 03:49:57;;;;;;;4.25;3.95;;;;;;;;;;4986190;28;20051;-75
2023/06/18 03:52:25;;;;;;;4.38;4.00;;;;;;;;;;4953878;28;20138;-75
2023/06/18 03:54:52;;;;;;;4.55;4.22;;;;;;;;;;4952344;28;20047;-75
2023/06/18 03:57:20;;;;;;;4.75;4.30;;;;;;;;;;4959210;28;20125;-75
2023/06/18 03:59:51;;;;;;;4.82;4.47;;;;;;;;;;4945851;28;20058;-75
2023/06/18 04:02:19;;;;;;;4.37;4.03;;;;;;;;;;4958359;28;20043;-75
2023/06/18 04:04:46;;;;;;;4.35;4.05;;;;;;;;;;4960671;28;20098;-75
2023/06/18 04:07:14;;;;;;;4.85;4.32;;;;;;;;;;4951279;28;20055;-75
2023/06/18 04:09:42;;;;;;;4.75;4.35;;;;;;;;;;4942322;28;20047;-75
2023/06/18 04:12:09;;;;;;;4.50;4.20;;;;;;;;;;4957697;28;20136;-76
2023/06/18 04:14:37;;;;;;;4.03;3.72;;;;;;;;;;4961364;28;20050;-75
2023/06/18 04:17:06;;;;;;;4.70;4.38;;;;;;;;;;4987227;28;20527;-75
2023/06/18 04:19:35;;;;;;;3.85;3.55;;;;;;;;;;4967121;28;20504;-75
2023/06/18 04:22:02;;;;;;;4.18;3.88;;;;;;;;;;4983919;28;20094;-75
2023/06/18 04:24:30;;;;;;;4.78;3.90;;;;;;;;;;4951018;28;20074;-75
2023/06/18 04:26:58;;;;;;;4.30;3.92;;;;;;;;;;4937909;28;20051;-76
2023/06/18 04:29:26;;;;;;;4.10;3.80;;;;;;;;;;4951415;28;20047;-75
2023/06/18 04:31:54;;;;;;;4.22;3.92;;;;;;;;;;4959893;28;20054;-76
2023/06/18 04:34:21;;;;;;;4.00;3.75;;;;;;;;;;4957461;28;20050;-75
2023/06/18 04:36:49;;;;;;;4.22;3.92;;;;;;;;;;4952860;28;20059;-75
2023/06/18 04:39:19;;;;;;;4.22;3.92;;;;;;;;;;4947801;28;20040;-75
2023/06/18 04:41:46;;;;;;;4.13;3.83;;;;;;;;;;4959696;28;20524;-75
2023/06/18 04:44:14;;;;;;;4.55;4.25;;;;;;;;;;4955020;28;20047;-75
2023/06/18 04:46:43;;;;;;;4.82;4.43;;;;;;;;;;4980811;28;20399;-75
2023/06/18 04:49:11;;;;;;;4.90;4.53;;;;;;;;;;4943313;28;20055;-75
2023/06/18 04:51:39;;;;;;;4.55;4.25;;;;;;;;;;4951412;28;20047;-75
2023/06/18 04:54:07;;;;;;;5.30;4.90;;;;;;;;;;4964283;28;20042;-75
2023/06/18 04:56:34;;;;;;;4.70;4.40;;;;;;;;;;4942652;28;20046;-75
2023/06/18 04:59:02;;;;;;;4.45;4.05;;;;;;;;;;4955882;28;20046;-75
2023/06/18 05:01:29;;;;;;;4.40;4.10;;;;;;;;;;4955260;28;20057;-75
2023/06/18 05:03:57;;;;;;;4.40;4.10;;;;;;;;;;4977773;28;20047;-75
2023/06/18 05:06:25;;;;;;;4.88;4.47;;;;;;;;;;4937309;28;20136;-75
2023/06/18 05:08:52;;;;;;;4.90;4.55;;;;;;;;;;4984311;28;20073;-75
2023/06/18 05:11:20;;;;;;;4.20;3.90;;;;;;;;;;4989106;28;20059;-75
2023/06/18 05:13:48;;;;;;;4.35;4.05;;;;;;;;;;4982857;28;20967;-75
2023/06/18 05:16:17;;;;;;;4.35;4.05;;;;;;;;;;4967019;28;20492;-75
2023/06/18 05:18:44;;;;;;;5.30;3.90;;;;;;;;;;4938732;28;20134;-75
2023/06/18 05:21:15;;;;;;;4.40;4.00;;;;;;;;;;4984662;28;20043;-75
2023/06/18 05:23:43;;;;;;;4.20;3.90;;;;;;;;;;4950270;28;20067;-75
2023/06/18 05:26:12;;;;;;;4.10;3.58;;;;;;;;;;4949017;28;20074;-75
2023/06/18 05:28:40;;;;;;;4.22;3.92;;;;;;;;;;4983191;28;20046;-75
2023/06/18 05:31:07;;;;;;;3.90;3.60;;;;;;;;;;4948373;28;20493;-76
2023/06/18 05:33:36;;;;;;;4.38;3.67;;;;;;;;;;4979575;28;20402;-75
2023/06/18 05:36:05;;;;;;;4.63;3.55;;;;;;;;;;4964742;28;20061;-76
2023/06/18 05:38:33;;;;;;;3.70;3.40;;;;;;;;;;4983278;28;20126;-75
2023/06/18 05:41:02;;;;;;;3.83;3.55;;;;;;;;;;4938662;28;20413;-74
2023/06/18 05:43:29;;;;;;;4.30;4.00;;;;;;;;;;4947709;28;20050;-74
2023/06/18 05:45:57;;;;;;;3.80;3.55;;;;;;;;;;4946724;28;20043;-73
2023/06/18 05:48:25;;;;;;;4.93;3.50;;;;;;;;;;4965412;28;20061;-73
2023/06/18 05:51:12;;;;;;;4.07;3.78;;;;;;;;;;4951216;28;20490;-75
2023/06/18 05:53:39;;;;;;;4.50;4.20;;;;;;;;;;4948235;28;20051;-75
2023/06/18 05:56:07;;;;;;;4.13;3.83;;;;;;;;;;4953377;28;20082;-75
2023/06/18 05:58:35;;;;;;;4.10;3.80;;;;;;;;;;4987719;28;20130;-75
2023/06/18 06:01:03;;;;;;;4.20;3.90;;;;;;;;;;4944001;28;20047;-75
2023/06/18 06:03:31;;;;;;;3.47;3.28;;;;;;;;;;4949146;28;20042;-75
2023/06/18 06:06:01;;;;;;;4.10;3.80;;;;;;;;;;4971110;28;20090;-76
2023/06/18 06:08:30;;;;;;;4.40;4.10;;;;;;;;;;4955080;28;20043;-75
2023/06/18 06:11:00;;;;;;;5.20;3.55;;;;;;;;;;4966769;28;20078;-75
2023/06/18 06:13:27;;;;;;;4.18;3.78;;;;;;;;;;4987944;28;20063;-75
2023/06/18 06:16:04;;;;;;;4.00;3.72;;;;;;;;;;4947423;28;20062;-75
2023/06/18 06:18:32;;;;;;;4.25;3.95;;;;;;;;;;4954538;28;20039;-75
2023/06/18 06:21:00;;;;;;;4.10;3.80;;;;;;;;;;4947874;28;20054;-75
2023/06/18 06:23:27;;;;;;;3.85;3.55;;;;;;;;;;4954832;28;20054;-75
2023/06/18 06:25:54;;;;;;;4.38;3.97;;;;;;;;;;4954007;28;20642;-75
2023/06/18 06:28:22;;;;;;;3.70;3.50;;;;;;;;;;4945227;28;20059;-75
2023/06/18 06:30:50;;;;;;;3.67;3.47;;;;;;;;;;4981063;28;20078;-75
2023/06/18 06:33:18;;;;;;;4.38;4.07;;;;;;;;;;4967982;23;20039;-76
2023/06/18 06:35:46;;;;;;;3.80;3.58;;;;;;;;;;4951037;28;20050;-76
2023/06/18 06:38:15;;;;;;;3.88;3.58;;;;;;;;;;4998287;28;20122;-76
2023/06/18 06:40:43;;;;;;;3.92;3.65;;;;;;;;;;4951416;28;20059;-76
2023/06/18 06:43:11;;;;;;;3.58;3.38;;;;;;;;;;4961593;28;20085;-76
2023/06/18 06:45:57;;;;;;;3.70;3.50;;;;;;;;;;4947896;28;20417;-75
2023/06/18 06:48:43;;;;;;;4.15;3.90;;;;;;;;;;4948356;28;20134;-75
2023/06/18 06:51:28;;;;;;;4.25;3.95;;;;;;;;;;4948616;28;20051;-78
2023/06/18 06:54:05;;;;;;;4.00;3.75;;;;;;;;;;4949142;28;20497;-76
2023/06/18 06:56:33;;;;;;;4.35;4.03;;;;;;;;;;4960549;28;20051;-77
2023/06/18 06:59:00;;;;;;;4.38;4.07;;;;;;;;;;4947957;28;20071;-78
2023/06/18 07:01:28;;;;;;;4.40;4.00;;;;;;;;;;4948259;28;20763;-77
2023/06/18 07:03:56;;;;;;;4.05;3.75;;;;;;;;;;4950534;28;20039;-76
2023/06/18 07:06:25;;;;;;;4.15;3.85;;;;;;;;;;4950725;28;20058;-78
2023/06/18 07:08:53;;;;;;;4.50;4.20;;;;;;;;;;4950288;28;20047;-75
2023/06/18 07:11:21;;;;;;;4.05;3.75;;;;;;;;;;4950778;28;20050;-76
2023/06/18 07:13:48;;;;;;;3.90;3.60;;;;;;;;;;4952550;28;20065;-76
2023/06/18 07:16:16;;;;;;;4.00;3.80;;;;;;;;;;4949663;28;20133;-76
2023/06/18 07:18:44;;;;;;;3.95;3.65;;;;;;;;;;4950720;28;20047;-78
2023/06/18 07:21:11;;;;;;;4.50;4.20;;;;;;;;;;4948754;28;20050;-79
2023/06/18 07:23:39;;;;;;;4.65;4.30;;;;;;;;;;4954204;28;20047;-75
2023/06/18 07:26:06;;;;;;;4.50;4.20;;;;;;;;;;4951566;28;20151;-76
2023/06/18 07:28:34;;;;;;;5.13;3.67;;;;;;;;;;4946217;28;20413;-78
2023/06/18 07:31:01;;;;;;;4.72;4.32;;;;;;;;;;4951024;28;20056;-76
2023/06/18 07:33:29;;;;;;;4.70;4.30;;;;;;;;;;4948725;28;20165;-77
2023/06/18 07:35:56;;;;;;;4.00;3.70;;;;;;;;;;4955421;28;20582;-78
2023/06/18 07:38:24;;;;;;;4.05;3.75;;;;;;;;;;4961541;28;20455;-76
2023/06/18 07:40:52;;;;;;;4.30;4.00;;;;;;;;;;4953551;28;20043;-76
2023/06/18 07:43:19;;;;;;;4.35;3.95;;;;;;;;;;4959302;28;20043;-78
2023/06/18 07:45:47;;;;;;;4.57;4.28;;;;;;;;;;4955697;28;20057;-76
2023/06/18 07:48:15;;;;;;;4.15;3.85;;;;;;;;;;4949503;28;20070;-78
2023/06/18 07:50:42;;;;;;;3.90;3.67;;;;;;;;;;4950599;28;20385;-76
2023/06/18 07:53:10;;;;;;;3.78;3.58;;;;;;;;;;4950391;28;20043;-75
2023/06/18 07:55:38;;;;;;;3.65;3.45;;;;;;;;;;4945617;28;20490;-75
2023/06/18 07:58:05;;;;;;;3.50;3.30;;;;;;;;;;4948018;28;20047;-77
2023/06/18 08:00:32;;;;;;;3.60;3.40;;;;;;;;;;4948868;28;20131;-75
2023/06/18 08:03:00;;;;;;;3.92;3.63;;;;;;;;;;4948928;28;20512;-75
2023/06/18 08:05:27;;;;;;;3.10;2.90;;;;;;;;;;4947907;28;20391;-75
2023/06/18 08:07:55;;;;;;;3.40;3.20;;;;;;;;;;4945518;28;20195;-77
2023/06/18 08:10:22;;;;;;;3.70;3.40;;;;;;;;;;4943387;28;20520;-77
2023/06/18 08:12:52;;;;;;;3.28;3.08;;;;;;;;;;4945658;28;20047;-78
2023/06/18 08:15:20;;;;;;;3.30;3.10;;;;;;;;;;4946317;28;20043;-74
2023/06/18 08:17:47;;;;;;;4.00;3.70;;;;;;;;;;4945727;28;20051;-76
2023/06/18 08:20:15;;;;;;;3.35;3.15;;;;;;;;;;4945480;28;20047;-74
2023/06/18 08:22:42;;;;;;;3.85;3.55;;;;;;;;;;4943093;28;20735;-76
2023/06/18 08:25:10;;;;;;;3.75;3.50;;;;;;;;;;4948328;28;20047;-77
2023/06/18 08:27:38;;;;;;;3.97;3.67;;;;;;;;;;4946762;28;20051;-78
2023/06/18 08:30:05;;;;;;;3.72;3.42;;;;;;;;;;4942917;28;20052;-76
2023/06/18 08:32:33;;;;;;;3.58;3.33;;;;;;;;;;4948119;28;20075;-76
2023/06/18 08:35:01;;;;;;;3.53;3.33;;;;;;;;;;4947475;28;20051;-75
2023/06/18 08:37:30;;;;;;;3.22;3.03;;;;;;;;;;4946780;28;20079;-77
2023/06/18 08:39:57;;;;;;;3.65;3.35;;;;;;;;;;4946918;28;20051;-77
2023/06/18 08:42:25;;;;;;;3.25;2.95;;;;;;;;;;4947118;28;20184;-74
2023/06/18 08:44:54;;;;;;;2.97;2.78;;;;;;;;;;4947809;28;20058;-75
2023/06/18 08:47:22;;;;;;;2.80;2.70;;;;;;;;;;4946350;28;20047;-76
2023/06/18 08:49:51;;;;;;;3.20;3.00;;;;;;;;;;4947816;28;20063;-77
2023/06/18 08:52:20;;;;;;;3.10;2.90;;;;;;;;;;4944358;28;20094;-76
2023/06/18 08:54:53;;;;;;;3.28;2.88;;;;;;;;;;4945698;28;20544;-76
2023/06/18 08:57:32;;;;;;;3.30;3.05;;;;;;;;;;4948611;28;20142;-76
2023/06/18 09:00:00;;;;;;;3.15;2.95;;;;;;;;;;4947662;28;20059;-77
2023/06/18 09:02:27;;;;;;;3.60;3.40;;;;;;;;;;4949391;28;20054;-76
2023/06/18 09:04:56;;;;;;;3.97;3.67;;;;;;;;;;4947529;28;20045;-76
2023/06/18 09:07:24;;;;;;;3.92;3.63;;;;;;;;;;4948676;28;20047;-74
2023/06/18 09:09:52;;;;;;;4.38;4.00;;;;;;;;;;4950449;28;20433;-75
2023/06/18 09:12:21;;;;;;;3.70;3.45;;;;;;;;;;4948028;28;20047;-78
2023/06/18 09:14:48;;;;;;;3.67;3.40;;;;;;;;;;4939869;28;20082;-77
2023/06/18 09:17:16;;;;;;;3.67;3.47;;;;;;;;;;4936214;28;20050;-75
2023/06/18 09:19:44;;;;;;;3.65;3.40;;;;;;;;;;4941002;28;20039;-78
2023/06/18 09:22:13;;;;;;;3.88;3.58;;;;;;;;;;4939979;28;20055;-78
2023/06/18 09:24:41;;;;;;;4.07;3.72;;;;;;;;;;4940025;28;20333;-75
2023/06/18 09:27:09;;;;;;;3.70;3.40;;;;;;;;;;4939235;28;20457;-76
2023/06/18 09:29:37;;;;;;;3.63;3.38;;;;;;;;;;4940042;28;20055;-78
2023/06/18 09:32:14;;;;;;;3.05;2.90;;;;;;;;;;4935884;28;20055;-77
2023/06/18 09:34:43;;;;;;;3.03;2.83;;;;;;;;;;4936522;28;20070;-78
2023/06/18 09:37:13;;;;;;;2.97;2.78;;;;;;;;;;4933876;28;20039;-76
2023/06/18 09:39:41;;;;;;;3.05;2.88;;;;;;;;;;4936927;28;20114;-78
2023/06/18 09:42:11;;;;;;;4.60;4.20;;;;;;;;;;4932977;28;20070;-77
2023/06/18 09:44:38;;;;;;;4.05;3.45;;;;;;;;;;4936447;28;20062;-78
2023/06/18 09:47:12;;;;;;;4.25;3.95;;;;;;;;;;4937105;28;20043;-76
2023/06/18 09:49:49;;;;;;;3.60;3.28;;;;;;;;;;4933460;28;20055;-78
2023/06/18 09:52:21;;;;;;;3.83;3.63;;;;;;;;;;4936145;28;20065;-76
2023/06/18 09:54:49;;;;;;;3.78;3.55;;;;;;;;;;4937228;28;20055;-78
2023/06/18 09:57:16;;;;;;;3.53;3.30;;;;;;;;;;4938953;28;20051;-79
2023/06/18 09:59:44;;;;;;;3.17;2.97;;;;;;;;;;4943514;28;20351;-75
2023/06/18 10:02:13;;;;;;;3.20;2.97;;;;;;;;;;4946382;28;20058;-77
2023/06/18 10:04:41;;;;;;;3.17;2.97;;;;;;;;;;4946168;28;20043;-79
2023/06/18 10:07:16;;;;;;;3.63;3.40;;;;;;;;;;4943911;28;20055;-79
2023/06/18 10:09:46;;;;;;;4.07;3.78;;;;;;;;;;4941856;28;20083;-79
2023/06/18 10:12:18;;;;;;;3.28;3.08;;;;;;;;;;4943369;28;20055;-78
2023/06/18 10:14:46;;;;;;;3.38;3.08;;;;;;;;;;4952206;28;20118;-79
2023/06/18 10:17:27;;;;;;;2.15;2.05;;;;;;;;;;4938188;28;20324;-78
2023/06/18 10:19:55;;;;;;;3.08;2.45;;;;;;;;;;4945351;28;20067;-80
2023/06/18 10:22:24;;;;;;;3.28;3.08;;;;;;;;;;4933417;28;20074;-78
2023/06/18 10:24:58;;;;;;;3.35;3.15;;;;;;;;;;4936382;28;20552;-79
2023/06/18 10:27:25;;;;;;;2.83;2.63;;;;;;;;;;4934862;28;20048;-79
2023/06/18 10:29:53;;;;;;;3.08;2.63;;;;;;;;;;4928077;28;20461;-77
2023/06/18 10:32:21;;;;;;;3.58;3.22;;;;;;;;;;4943151;28;20501;-79
2023/06/18 10:34:48;;;;;;;3.33;3.13;;;;;;;;;;4938196;28;20693;-79
2023/06/18 10:37:16;;;;;;;3.20;3.00;;;;;;;;;;4932986;28;20051;-77
2023/06/18 10:39:44;;;;;;;3.10;2.90;;;;;;;;;;4926069;28;20564;-77
2023/06/18 10:42:13;;;;;;;3.30;3.10;;;;;;;;;;4934817;28;20047;-76
2023/06/18 10:44:51;;;;;;;3.50;3.20;;;;;;;;;;4935033;28;20058;-78
2023/06/18 10:47:22;;;;;;;3.28;2.97;;;;;;;;;;4936241;28;20465;-76
2023/06/18 10:50:02;;;;;;;2.60;2.50;;;;;;;;;;4938841;28;20138;-79
2023/06/18 10:52:35;;;;;;;2.15;2.05;;;;;;;;;;4940016;28;20047;-78
2023/06/18 10:55:06;;;;;;;2.40;2.20;;;;;;;;;;4944635;28;20055;-80
2023/06/18 10:57:40;;;;;;;2.30;2.20;;;;;;;;;;4939987;28;20059;-78
2023/06/18 11:00:25;;;;;;;2.78;2.58;;;;;;;;;;4942963;28;20047;-80
2023/06/18 11:02:59;;;;;;;3.40;3.10;;;;;;;;;;4940403;28;20714;-77
2023/06/18 11:05:34;;;;;;;3.03;2.83;;;;;;;;;;4963598;28;20869;-76
2023/06/18 11:08:05;;;;;;;2.65;2.50;;;;;;;;;;4944667;28;20641;-80
2023/06/18 11:10:40;;;;;;;2.78;2.60;;;;;;;;;;4945482;28;20117;-78
2023/06/18 11:13:08;;;;;;;2.60;2.50;;;;;;;;;;4948397;28;20513;-76
2023/06/18 11:15:36;;;;;;;2.80;2.58;;;;;;;;;;4959572;28;20059;-78
2023/06/18 11:18:04;;;;;;;2.88;2.67;;;;;;;;;;4953036;28;20106;-77
2023/06/18 11:20:35;;;;;;;3.13;2.92;;;;;;;;;;4943330;28;20050;-77
2023/06/18 11:23:04;;;;;;;2.88;2.72;;;;;;;;;;4943363;28;20201;-77
2023/06/18 11:25:32;;;;;;;3.42;3.20;;;;;;;;;;4943797;28;20137;-76
2023/06/18 11:28:02;;;;;;;3.33;3.13;;;;;;;;;;4946931;28;20054;-79
2023/06/18 11:30:33;;;;;;;2.72;2.63;;;;;;;;;;4942093;28;20580;-74
2023/06/18 11:33:01;;;;;;;;;;;;;;;;;;4949079;28;20626;-75
2023/06/18 11:35:30;;;;;;;3.00;2.80;;;;;;;;;;4947713;28;19962;-78
2023/06/18 11:37:58;;;;;;;3.08;2.88;;;;;;;;;;4945364;28;20125;-78
2023/06/18 11:40:25;;;;;;;2.50;2.40;;;;;;;;;;4945364;28;20493;-77
2023/06/18 11:42:53;;;;;;;2.10;2.00;;;;;;;;;;4942842;28;20106;-77
2023/06/18 11:45:21;;;;;;;2.38;2.28;;;;;;;;;;4938556;28;20054;-76
2023/06/18 11:47:50;;;;;;;2.30;2.20;;;;;;;;;;4938627;28;20051;-78
2023/06/18 11:50:19;;;;;;;2.03;1.92;;;;;;;;;;4939403;28;20095;-76
2023/06/18 11:52:47;;;;;;;2.20;2.03;;;;;;;;;;4937403;28;20050;-78
2023/06/18 11:55:15;;;;;;;1.83;1.73;;;;;;;;;;4943492;28;20406;-79
2023/06/18 11:57:42;;;;;;;1.95;1.88;;;;;;;;;;4941932;28;20066;-78
2023/06/18 12:00:12;;;;;;;1.80;1.70;;;;;;;;;;4940494;28;20589;-79
2023/06/18 12:02:40;;;;;;;1.85;1.80;;;;;;;;;;4943307;28;20062;-78
2023/06/18 12:05:08;;;;;;;1.75;1.70;;;;;;;;;;4940394;28;20114;-78
2023/06/18 12:07:39;;;;;;;2.00;1.80;;;;;;;;;;4942664;28;20135;-77
2023/06/18 12:10:10;;;;;;;1.77;1.67;;;;;;;;;;4946985;28;20078;-77
2023/06/18 12:12:54;;;;;;;1.98;1.88;;;;;;;;;;4942768;28;20046;-79
2023/06/18 12:15:22;;;;;;;1.73;1.73;;;;;;;;;;4934498;28;20492;-77
2023/06/18 12:17:57;;;;;;;2.42;2.33;;;;;;;;;;4939432;28;20059;-79
2023/06/18 12:20:25;;;;;;;2.03;1.92;;;;;;;;;;4937111;28;20067;-77
2023/06/18 12:22:54;;;;;;;1.80;1.80;;;;;;;;;;4948216;28;20053;-79
2023/06/18 12:25:27;;;;;;;2.22;2.10;;;;;;;;;;4946927;28;20126;-78
2023/06/18 12:27:56;;;;;;;2.10;2.00;;;;;;;;;;4947051;28;20131;-77
2023/06/18 12:30:28;;;;;;;1.90;1.80;;;;;;;;;;4935802;28;20268;-77
2023/06/18 12:33:03;;;;;;;1.90;1.80;;;;;;;;;;4950470;28;20074;-77
2023/06/18 12:35:31;;;;;;;1.90;1.80;;;;;;;;;;4947559;28;20106;-77
2023/06/18 12:38:03;;;;;;;2.45;1.80;;;;;;;;;;4941056;28;20070;-79
2023/06/18 12:40:31;;;;;;;2.05;1.95;;;;;;;;;;4940567;28;20039;-77
2023/06/18 12:43:02;;;;;;;2.00;1.90;;;;;;;;;;4948052;28;20051;-78
2023/06/18 12:45:32;;;;;;;2.00;1.90;;;;;;;;;;4938734;28;20051;-77
2023/06/18 12:48:10;;;;;;;1.45;1.45;;;;;;;;;;4944835;28;20077;-76
2023/06/18 12:50:37;;;;;;;1.40;1.40;;;;;;;;;;4952002;28;20052;-76
2023/06/18 12:53:26;;;;;;;1.80;1.80;;;;;;;;;;4944750;28;20052;-76
2023/06/18 12:55:55;;;;;;;2.15;1.85;;;;;;;;;;4943581;28;20047;-75
2023/06/18 12:58:24;;;;;;;1.27;1.27;;;;;;;;;;4945287;28;20054;-76
2023/06/18 13:00:53;;;;;;;1.50;1.40;;;;;;;;;;4948356;28;20057;-79
2023/06/18 13:03:21;;;;;;;1.58;1.48;;;;;;;;;;4947062;28;20050;-77
2023/06/18 13:05:50;;;;;;;1.38;1.38;;;;;;;;;;4946550;28;20243;-76
2023/06/18 13:08:19;;;;;;;1.35;1.35;;;;;;;;;;4943289;28;20043;-78
2023/06/18 13:10:50;;;;;;;1.45;1.45;;;;;;;;;;4946444;28;20214;-77
2023/06/18 13:13:18;;;;;;;1.42;1.42;;;;;;;;;;4943601;28;20051;-80
2023/06/18 13:15:47;;;;;;;1.30;1.30;;;;;;;;;;4947968;28;20593;-78
2023/06/18 13:18:18;;;;;;;1.80;1.70;;;;;;;;;;4945107;28;20058;-79
2023/06/18 13:20:46;;;;;;;1.70;1.60;;;;;;;;;;4943067;28;20047;-79
2023/06/18 13:23:14;;;;;;;1.60;1.50;;;;;;;;;;4943055;28;20505;-78
2023/06/18 13:25:41;;;;;;;1.42;1.40;;;;;;;;;;4946086;28;20572;-79
2023/06/18 13:28:09;;;;;;;1.75;1.65;;;;;;;;;;4946534;28;20067;-78
2023/06/18 13:30:36;;;;;;;1.63;1.60;;;;;;;;;;4944762;28;20054;-77
2023/06/18 13:33:04;;;;;;;1.70;1.60;;;;;;;;;;4939421;28;20098;-79
2023/06/18 13:35:32;;;;;;;1.67;1.67;;;;;;;;;;4942748;28;20047;-77
2023/06/18 13:37:59;;;;;;;1.83;1.73;;;;;;;;;;4944519;28;20466;-77
2023/06/18 13:40:27;;;;;;;1.58;1.58;;;;;;;;;;4944271;28;20063;-80
2023/06/18 13:42:55;;;;;;;1.70;1.60;;;;;;;;;;4942031;28;20046;-75
2023/06/18 13:45:23;;;;;;;1.40;1.40;;;;;;;;;;4941968;28;20051;-76
2023/06/18 13:47:51;;;;;;;1.75;1.70;;;;;;;;;;4944597;28;20271;-76
2023/06/18 13:50:19;;;;;;;2.20;2.10;;;;;;;;;;4944638;28;20078;-79
2023/06/18 13:52:47;;;;;;;1.60;1.60;;;;;;;;;;4936739;28;20071;-78
2023/06/18 13:55:15;;;;;;;1.48;1.48;;;;;;;;;;4934935;28;20047;-79
2023/06/18 13:57:42;;;;;;;1.77;1.38;;;;;;;;;;4936267;28;20083;-80
2023/06/18 14:00:10;;;;;;;1.42;1.42;;;;;;;;;;4940573;28;20039;-78
2023/06/18 14:02:37;;;;;;;1.40;1.40;;;;;;;;;;4936427;28;20051;-77
2023/06/18 14:05:06;;;;;;;1.58;1.50;;;;;;;;;;4946713;28;20122;-76
2023/06/18 14:07:34;;;;;;;1.58;1.48;;;;;;;;;;4945941;28;20055;-76
2023/06/18 14:10:01;;;;;;;1.60;1.60;;;;;;;;;;4947019;28;20051;-77
2023/06/18 14:12:29;;;;;;;1.30;1.30;;;;;;;;;;4945432;28;20106;-77
2023/06/18 14:14:57;;;;;;;2.42;2.33;;;;;;;;;;4936105;28;20144;-77
2023/06/18 14:17:25;;;;;;;6.60;6.10;;;;;;;;;;4953807;28;20449;-78
2023/06/18 14:19:54;;;;;;;2.33;2.22;;;;;;;;;;4935335;28;20043;-77
2023/06/18 14:22:21;;;;;;;1.80;1.70;;;;;;;;;;4941523;28;20039;-77
2023/06/18 14:24:52;;;;;;;1.40;1.40;;;;;;;;;;4929372;28;20050;-78
2023/06/18 14:27:20;;;;;;;1.50;1.50;;;;;;;;;;4937414;28;20514;-77
2023/06/18 14:29:49;;;;;;;1.70;1.60;;;;;;;;;;4944536;28;20129;-77
2023/06/18 14:32:16;;;;;;;1.60;1.50;;;;;;;;;;4944899;28;20047;-77
2023/06/18 14:34:44;;;;;;;1.30;1.30;;;;;;;;;;4941109;28;20095;-77
2023/06/18 14:37:11;;;;;;;1.60;1.60;;;;;;;;;;4944332;28;20127;-75
2023/06/18 14:39:39;;;;;;;1.70;1.70;;;;;;;;;;4943689;28;20043;-75
2023/06/18 14:42:06;;;;;;;1.48;1.48;;;;;;;;;;4945557;28;20047;-76
2023/06/18 14:44:34;;;;;;;1.20;1.20;;;;;;;;;;4943920;28;20102;-76
2023/06/18 14:47:04;;;;;;;1.40;1.40;;;;;;;;;;4942418;28;20504;-78
2023/06/18 14:49:34;;;;;;;1.45;1.35;;;;;;;;;;4942785;28;20047;-76
2023/06/18 14:52:02;;;;;;;1.25;1.25;;;;;;;;;;4947705;28;20043;-77
2023/06/18 14:54:29;;;;;;;1.35;1.35;;;;;;;;;;4950509;28;20047;-78